Time;durP1;ratioP1;P1;durP2;ratioP2;P2;SDS_P1;SDS_P2;PMS_P1;PMS_P2;Temp;Humidity;BMP_temperature;BMP_pressure;BME280_temperature;BME280_humidity;BME280_pressure;Samples;Min_cycle;Max_cycle;Signal;HPM_P1;HPM_P2
2022/07/08 00:02:25;;;;;;;0.57;0.30;;;28.10;99.90;;;;;;4991394;28;20261;-96
2022/07/08 00:05:02;;;;;;;1.53;0.40;;;28.00;99.90;;;;;;4989736;28;20269;-96
2022/07/08 00:07:34;;;;;;;0.30;0.30;;;27.70;99.90;;;;;;4980771;28;20207;-96
2022/07/08 00:10:07;;;;;;;0.30;0.30;;;27.70;99.90;;;;;;4980238;28;20214;-96
2022/07/08 00:12:40;;;;;;;1.70;0.37;;;27.40;99.90;;;;;;4983898;28;20219;-96
2022/07/08 00:15:15;;;;;;;2.63;0.50;;;27.40;99.90;;;;;;4983987;28;20210;-96
2022/07/08 00:17:48;;;;;;;0.73;0.70;;;27.50;99.90;;;;;;4985120;28;20217;-96
2022/07/08 00:20:22;;;;;;;0.30;0.30;;;27.90;99.90;;;;;;4982887;28;20200;-96
2022/07/08 00:22:56;;;;;;;1.00;0.80;;;27.90;99.90;;;;;;4987228;28;20215;-96
2022/07/08 00:34:19;;;;;;;0.67;0.40;;;26.80;99.90;;;;;;4989241;28;20279;-96
2022/07/08 00:36:54;;;;;;;0.73;0.50;;;26.90;99.90;;;;;;4991678;28;20211;-96
2022/07/08 00:39:27;;;;;;;0.40;0.40;;;27.10;99.90;;;;;;4986293;28;20246;-96
2022/07/08 00:41:59;;;;;;;1.03;0.47;;;27.20;99.90;;;;;;4982024;28;20221;-96
2022/07/08 00:44:40;;;;;;;0.50;0.40;;;27.20;99.90;;;;;;4991595;28;20258;-96
2022/07/08 00:47:12;;;;;;;1.33;0.40;;;26.90;99.90;;;;;;4990185;28;20211;-96
2022/07/08 00:55:42;;;;;;;0.30;0.30;;;27.30;99.90;;;;;;4993658;28;20194;-96
2022/07/08 01:24:07;;;;;;;1.03;0.67;;;28.10;99.90;;;;;;4986225;23;20254;-96
2022/07/08 01:27:08;;;;;;;46.87;2.40;;;28.30;99.90;;;;;;5775453;23;21834;-96
2022/07/08 01:54:18;;;;;;;1.13;0.50;;;27.10;99.90;;;;;;4972285;28;20259;-96
2022/07/08 01:57:13;;;;;;;0.50;0.50;;;27.40;99.90;;;;;;4976956;29;20211;-96
2022/07/08 01:59:59;;;;;;;0.70;0.60;;;27.20;99.90;;;;;;4972897;28;20207;-96
2022/07/08 02:02:46;;;;;;;2.27;0.63;;;27.20;99.90;;;;;;4974023;28;20212;-96
2022/07/08 02:05:19;;;;;;;0.93;0.80;;;26.80;99.90;;;;;;4968361;28;20231;-96
2022/07/08 02:07:53;;;;;;;0.80;0.70;;;27.30;99.90;;;;;;4971846;28;20270;-96
2022/07/08 02:14:04;;;;;;;2.00;0.60;;;27.90;99.90;;;;;;4957204;29;20227;-96
2022/07/08 02:50:18;;;;;;;1.30;1.20;;;22.90;99.90;;;;;;5648364;23;20274;-97
2022/07/08 03:07:53;;;;;;;1.97;0.93;;;21.30;99.90;;;;;;4991693;28;20215;-96
2022/07/08 03:19:00;;;;;;;1.10;1.00;;;21.00;99.90;;;;;;4992756;28;20222;-96
2022/07/08 03:21:47;;;;;;;2.47;1.40;;;21.00;99.90;;;;;;4977004;28;20199;-96
2022/07/08 03:35:42;;;;;;;1.17;0.90;;;20.60;99.90;;;;;;5881342;23;20285;-96
2022/07/08 03:38:50;;;;;;;2.23;1.10;;;20.50;99.90;;;;;;4995176;28;20211;-96
2022/07/08 03:41:35;;;;;;;2.63;1.20;;;20.40;99.90;;;;;;5519037;23;20243;-96
2022/07/08 03:44:08;;;;;;;1.63;1.40;;;20.40;99.90;;;;;;4992770;28;20242;-96
2022/07/08 03:46:42;;;;;;;2.37;1.60;;;20.30;99.90;;;;;;4978006;28;20298;-96
2022/07/08 04:02:44;;;;;;;3.33;1.40;;;19.80;99.90;;;;;;4972493;29;20219;-96
2022/07/08 04:05:17;;;;;;;1.20;1.10;;;19.70;99.90;;;;;;4977568;28;20250;-96
2022/07/08 04:17:26;;;;;;;1.50;1.23;;;19.50;99.90;;;;;;4950261;29;20224;-96
2022/07/08 04:30:10;;;;;;;1.90;1.30;;;19.00;99.90;;;;;;4951318;29;20339;-96
2022/07/08 04:43:43;;;;;;;1.53;1.00;;;18.70;99.90;;;;;;4970133;28;20231;-96
2022/07/08 04:46:22;;;;;;;2.03;1.43;;;18.70;99.90;;;;;;4965294;28;20626;-96
2022/07/08 04:52:15;;;;;;;1.77;1.33;;;18.50;99.90;;;;;;4963308;28;20222;-96
2022/07/08 04:54:49;;;;;;;1.40;1.10;;;18.50;99.90;;;;;;4969654;29;20271;-96
2022/07/08 04:57:21;;;;;;;1.93;1.30;;;18.50;99.90;;;;;;4959554;28;20212;-96
2022/07/08 04:59:53;;;;;;;1.30;1.20;;;18.50;99.90;;;;;;4961895;28;20322;-96
2022/07/08 05:02:28;;;;;;;1.30;1.20;;;18.40;99.90;;;;;;4942805;29;20224;-96
2022/07/08 05:05:00;;;;;;;1.23;1.10;;;18.30;99.90;;;;;;4958540;28;20301;-96
2022/07/08 05:07:31;;;;;;;1.00;1.00;;;18.30;99.90;;;;;;4958626;28;20207;-96
2022/07/08 05:10:04;;;;;;;1.77;1.67;;;18.30;99.90;;;;;;4959011;28;20204;-96
2022/07/08 05:12:41;;;;;;;2.07;1.20;;;18.30;99.90;;;;;;4977755;28;20265;-96
2022/07/08 05:20:34;;;;;;;1.37;1.27;;;18.10;99.90;;;;;;5058609;23;20259;-96
2022/07/08 05:23:12;;;;;;;1.83;1.30;;;18.00;99.90;;;;;;4995457;28;20206;-96
2022/07/08 05:25:47;;;;;;;2.63;1.33;;;18.00;99.90;;;;;;4990694;28;20308;-96
2022/07/08 05:37:34;;;;;;;1.37;1.27;;;18.00;99.90;;;;;;4989295;28;20578;-96
2022/07/08 05:43:06;;;;;;;1.30;1.20;;;18.00;99.90;;;;;;4981746;28;20211;-96
2022/07/08 05:45:39;;;;;;;2.43;1.40;;;18.00;99.90;;;;;;4983215;28;20261;-96
2022/07/08 05:48:12;;;;;;;2.03;1.47;;;18.00;99.90;;;;;;4964570;28;20235;-96
2022/07/08 05:50:44;;;;;;;1.77;1.47;;;18.00;99.90;;;;;;4982059;28;20219;-96
2022/07/08 05:53:42;;;;;;;2.27;1.00;;;18.00;99.90;;;;;;4980877;28;20211;-95
2022/07/08 05:56:15;;;;;;;3.10;1.40;;;18.00;99.90;;;;;;4963192;28;20222;-96
2022/07/08 05:58:46;;;;;;;1.20;1.10;;;17.80;99.90;;;;;;4980539;28;20262;-96
2022/07/08 06:01:18;;;;;;;1.70;1.50;;;17.80;99.90;;;;;;4980350;28;20723;-96
2022/07/08 06:03:50;;;;;;;2.83;1.20;;;17.60;99.90;;;;;;4980821;28;20229;-96
2022/07/08 06:06:26;;;;;;;1.10;1.00;;;17.60;99.90;;;;;;4987522;28;20258;-96
2022/07/08 06:12:21;;;;;;;1.93;1.50;;;17.50;99.90;;;;;;4976287;23;20263;-96
2022/07/08 06:14:52;;;;;;;2.77;1.17;;;17.40;99.90;;;;;;4972392;28;20215;-96
2022/07/08 06:17:25;;;;;;;1.97;1.30;;;17.40;99.90;;;;;;4980548;28;20207;-96
2022/07/08 06:19:56;;;;;;;1.40;1.17;;;17.40;99.90;;;;;;4980478;28;20215;-96
2022/07/08 06:22:29;;;;;;;1.93;1.40;;;17.30;99.90;;;;;;4980259;28;20191;-96
2022/07/08 06:25:12;;;;;;;1.77;1.50;;;17.40;99.90;;;;;;4981185;28;20262;-96
2022/07/08 06:27:57;;;;;;;2.17;1.20;;;17.30;99.90;;;;;;4979249;28;20196;-96
2022/07/08 06:30:42;;;;;;;1.73;1.30;;;17.30;99.90;;;;;;4971084;29;20195;-96
2022/07/08 06:33:15;;;;;;;2.13;1.30;;;17.30;99.90;;;;;;4967601;29;20207;-96
2022/07/08 06:35:48;;;;;;;1.67;1.30;;;17.30;99.90;;;;;;4962673;29;20669;-96
2022/07/08 06:41:15;;;;;;;1.93;1.30;;;17.40;99.90;;;;;;4969477;28;20207;-96
2022/07/08 06:44:02;;;;;;;2.30;1.47;;;17.50;99.90;;;;;;4966189;28;20233;-96
2022/07/08 06:46:35;;;;;;;1.50;1.13;;;17.50;99.90;;;;;;4967814;29;20266;-95
2022/07/08 06:52:33;;;;;;;1.20;1.10;;;17.50;99.90;;;;;;4970997;28;20215;-95
2022/07/08 06:55:17;;;;;;;3.43;1.23;;;17.50;99.90;;;;;;4966884;28;20214;-95
2022/07/08 07:07:45;;;;;;;1.20;1.10;;;17.20;99.90;;;;;;4953715;28;20216;-96
2022/07/08 07:13:15;;;;;;;1.23;1.13;;;17.10;99.90;;;;;;4949779;29;20234;-96
2022/07/08 07:16:00;;;;;;;2.10;1.30;;;17.20;99.90;;;;;;4950631;29;20248;-96
2022/07/08 07:18:35;;;;;;;1.47;1.30;;;17.10;99.90;;;;;;4949873;28;20224;-96
2022/07/08 07:21:08;;;;;;;1.20;1.10;;;17.10;99.90;;;;;;4946257;28;20236;-96
2022/07/08 07:23:41;;;;;;;2.13;1.33;;;17.00;99.90;;;;;;4945291;29;20212;-96
2022/07/08 07:26:12;;;;;;;1.93;1.40;;;17.00;99.90;;;;;;4946380;28;20314;-96
2022/07/08 07:28:46;;;;;;;2.50;1.33;;;17.00;99.90;;;;;;4947249;28;20212;-96
2022/07/08 07:31:38;;;;;;;2.33;1.57;;;17.00;99.90;;;;;;5190875;23;20234;-96
2022/07/08 07:34:11;;;;;;;3.00;1.20;;;17.00;99.90;;;;;;4985537;28;20618;-96
2022/07/08 07:36:43;;;;;;;2.77;1.40;;;16.90;99.90;;;;;;4982821;28;20215;-96
2022/07/08 07:39:15;;;;;;;1.77;1.37;;;16.90;99.90;;;;;;4980473;28;20211;-96
2022/07/08 07:41:46;;;;;;;2.70;1.37;;;16.80;99.90;;;;;;4978957;28;20199;-96
2022/07/08 07:44:17;;;;;;;1.40;1.30;;;16.80;99.90;;;;;;4980764;28;20211;-96
2022/07/08 07:46:49;;;;;;;1.40;1.20;;;16.80;99.90;;;;;;4980000;28;20622;-96
2022/07/08 07:49:24;;;;;;;1.43;1.20;;;16.70;99.90;;;;;;4979810;28;20222;-96
2022/07/08 07:51:56;;;;;;;3.90;1.40;;;16.70;99.90;;;;;;4983401;28;20265;-96
2022/07/08 07:57:25;;;;;;;2.30;1.47;;;16.80;99.90;;;;;;4984107;28;20218;-96
2022/07/08 07:59:57;;;;;;;3.27;1.30;;;16.70;99.90;;;;;;4979872;28;20273;-96
2022/07/08 08:05:22;;;;;;;2.93;1.50;;;16.80;99.90;;;;;;4980375;28;20211;-96
2022/07/08 08:07:54;;;;;;;1.93;1.10;;;16.80;99.90;;;;;;4989748;28;20730;-96
2022/07/08 08:10:25;;;;;;;2.13;1.30;;;16.80;99.90;;;;;;4980580;28;20215;-96
2022/07/08 08:12:57;;;;;;;1.43;1.30;;;16.80;99.90;;;;;;4979392;28;20291;-96
2022/07/08 08:15:29;;;;;;;1.43;1.33;;;16.80;99.90;;;;;;4978943;28;20203;-96
2022/07/08 08:18:05;;;;;;;1.47;1.33;;;16.80;99.90;;;;;;4978244;28;20631;-96
2022/07/08 08:20:42;;;;;;;2.20;1.60;;;17.00;99.90;;;;;;4977232;28;20215;-96
2022/07/08 08:23:14;;;;;;;6.10;1.93;;;16.90;99.90;;;;;;4978616;28;20217;-96
2022/07/08 08:25:51;;;;;;;3.37;1.60;;;16.90;99.90;;;;;;4963549;28;20238;-96
2022/07/08 08:28:24;;;;;;;1.37;1.27;;;17.00;99.90;;;;;;4959196;28;20259;-96
2022/07/08 08:30:56;;;;;;;2.60;1.30;;;17.00;99.90;;;;;;4957996;28;20663;-96
2022/07/08 08:33:27;;;;;;;2.30;1.70;;;17.00;99.90;;;;;;4958846;29;20211;-96
2022/07/08 08:39:29;;;;;;;3.10;1.53;;;17.00;99.90;;;;;;4961581;28;20204;-96
2022/07/08 08:42:02;;;;;;;2.27;1.47;;;17.00;99.90;;;;;;4985288;28;20229;-96
2022/07/08 08:44:33;;;;;;;4.23;1.70;;;16.90;99.90;;;;;;5002653;28;20218;-96
2022/07/08 08:47:10;;;;;;;2.10;1.50;;;16.90;99.90;;;;;;4998489;28;20242;-96
2022/07/08 08:49:43;;;;;;;2.93;1.47;;;16.90;99.90;;;;;;4977745;28;20235;-96
2022/07/08 08:52:19;;;;;;;2.67;1.50;;;16.90;99.90;;;;;;4977152;28;20195;-96
2022/07/08 08:54:56;;;;;;;1.87;1.60;;;16.90;99.90;;;;;;4978219;28;20336;-96
2022/07/08 08:57:28;;;;;;;3.53;1.70;;;16.90;99.90;;;;;;4977355;28;20212;-96
2022/07/08 09:00:00;;;;;;;4.53;1.50;;;16.80;99.90;;;;;;4961063;28;20571;-96
2022/07/08 09:02:32;;;;;;;1.60;1.50;;;16.80;99.90;;;;;;4960679;28;20219;-96
2022/07/08 09:05:04;;;;;;;1.97;1.60;;;16.80;99.90;;;;;;4960754;28;20215;-95
2022/07/08 09:07:36;;;;;;;2.93;1.37;;;16.80;99.90;;;;;;4984306;28;20649;-96
2022/07/08 09:10:11;;;;;;;1.77;1.30;;;16.70;99.90;;;;;;4981693;28;20219;-96
2022/07/08 09:13:00;;;;;;;2.13;1.40;;;16.70;99.90;;;;;;4980974;28;20221;-96
2022/07/08 09:15:33;;;;;;;1.53;1.43;;;16.60;99.90;;;;;;4982911;28;20222;-96
2022/07/08 09:18:08;;;;;;;3.30;1.50;;;16.60;99.90;;;;;;4982186;28;20210;-96
2022/07/08 09:20:43;;;;;;;1.93;1.70;;;16.50;99.90;;;;;;4980224;28;20309;-95
2022/07/08 09:23:17;;;;;;;1.50;1.40;;;16.50;99.90;;;;;;4978244;28;20554;-96
2022/07/08 09:25:53;;;;;;;2.67;1.70;;;16.50;99.90;;;;;;4978647;28;20298;-96
2022/07/08 09:28:32;;;;;;;1.57;1.47;;;16.50;99.90;;;;;;4978461;28;20202;-96
2022/07/08 09:31:05;;;;;;;1.70;1.60;;;16.50;99.90;;;;;;4978817;28;20219;-96
2022/07/08 09:33:37;;;;;;;1.63;1.53;;;16.50;99.90;;;;;;4980493;28;20219;-96
2022/07/08 09:36:11;;;;;;;4.07;2.10;;;16.50;99.90;;;;;;4978733;28;20242;-96
2022/07/08 09:38:43;;;;;;;1.67;1.40;;;16.50;99.90;;;;;;4978504;28;20290;-96
2022/07/08 09:41:17;;;;;;;3.20;1.70;;;16.40;99.90;;;;;;4977489;28;20222;-96
2022/07/08 09:43:50;;;;;;;1.57;1.47;;;16.50;99.90;;;;;;4978024;28;20284;-96
2022/07/08 09:46:25;;;;;;;1.50;1.40;;;16.50;99.90;;;;;;4978231;28;20222;-96
2022/07/08 09:48:57;;;;;;;3.17;1.57;;;16.50;99.90;;;;;;4982764;28;20215;-96
2022/07/08 09:54:28;;;;;;;1.80;1.40;;;16.50;99.90;;;;;;4988018;28;20227;-96
2022/07/08 09:57:07;;;;;;;2.00;1.67;;;16.50;99.90;;;;;;4983991;28;20691;-96
2022/07/08 09:59:43;;;;;;;3.90;2.00;;;16.50;99.90;;;;;;4982280;28;20218;-96
2022/07/08 10:02:17;;;;;;;2.17;1.70;;;16.50;99.90;;;;;;4981408;28;20214;-96
2022/07/08 10:04:51;;;;;;;1.93;1.40;;;16.50;99.90;;;;;;4982288;28;20238;-96
2022/07/08 10:07:22;;;;;;;3.27;1.60;;;16.50;99.90;;;;;;4982115;28;20294;-96
2022/07/08 10:09:54;;;;;;;1.33;1.23;;;16.50;99.90;;;;;;4981866;28;20207;-96
2022/07/08 10:12:30;;;;;;;1.53;1.40;;;16.50;99.90;;;;;;4981583;28;20211;-96
2022/07/08 10:15:05;;;;;;;1.83;1.73;;;16.50;99.90;;;;;;4982374;28;20238;-96
2022/07/08 10:17:42;;;;;;;2.23;1.40;;;16.50;99.90;;;;;;4982238;28;20257;-96
2022/07/08 10:20:17;;;;;;;1.70;1.60;;;16.50;99.90;;;;;;4981534;28;20799;-96
2022/07/08 10:22:50;;;;;;;2.47;1.30;;;16.50;99.90;;;;;;4985393;28;20214;-96
2022/07/08 10:25:22;;;;;;;3.40;1.40;;;16.40;99.90;;;;;;4998973;28;20199;-96
2022/07/08 10:28:06;;;;;;;1.87;1.50;;;16.40;99.90;;;;;;4998958;28;20270;-96
2022/07/08 10:30:50;;;;;;;2.47;1.67;;;16.40;99.90;;;;;;4998740;28;20238;-96
2022/07/08 10:33:26;;;;;;;2.50;1.57;;;16.30;99.90;;;;;;4999562;28;20199;-96
2022/07/08 10:36:09;;;;;;;2.90;1.30;;;16.20;99.90;;;;;;4999619;28;20214;-96
2022/07/08 10:38:43;;;;;;;3.37;1.80;;;16.10;99.90;;;;;;4999568;28;20207;-96
2022/07/08 10:41:19;;;;;;;1.80;1.40;;;16.00;99.90;;;;;;4998913;28;20232;-96
2022/07/08 10:44:00;;;;;;;1.43;1.33;;;16.00;99.90;;;;;;4999758;28;20206;-96
2022/07/08 10:46:31;;;;;;;1.60;1.40;;;15.90;99.90;;;;;;4999371;28;20251;-96
2022/07/08 10:49:04;;;;;;;4.00;1.43;;;15.90;99.90;;;;;;4999451;28;20199;-96
2022/07/08 10:51:59;;;;;;;1.43;1.20;;;15.90;99.90;;;;;;4998677;28;20203;-96
2022/07/08 10:54:38;;;;;;;3.00;1.50;;;15.90;99.90;;;;;;4999357;28;20187;-96
2022/07/08 10:57:19;;;;;;;3.20;1.60;;;15.90;99.90;;;;;;4992512;28;20210;-96
2022/07/08 11:00:10;;;;;;;1.60;1.27;;;15.90;99.90;;;;;;4979716;28;20200;-96
2022/07/08 11:02:43;;;;;;;1.40;1.30;;;15.90;99.90;;;;;;4978817;28;20192;-95
2022/07/08 11:05:37;;;;;;;2.33;1.30;;;16.00;99.90;;;;;;4972101;28;20226;-94
2022/07/08 11:08:28;;;;;;;1.17;1.07;;;16.00;99.90;;;;;;4986055;28;20550;-96
2022/07/08 11:11:00;;;;;;;1.50;1.27;;;15.90;99.90;;;;;;4984704;28;20683;-96
2022/07/08 11:13:34;;;;;;;1.80;1.07;;;16.00;99.90;;;;;;4984962;28;20652;-96
2022/07/08 11:16:08;;;;;;;1.50;1.20;;;16.00;99.90;;;;;;4985035;28;20215;-96
2022/07/08 11:18:39;;;;;;;2.00;1.13;;;16.00;99.90;;;;;;4985824;28;20337;-96
2022/07/08 11:21:11;;;;;;;1.30;1.20;;;16.00;99.90;;;;;;4982287;28;20674;-96
2022/07/08 11:23:49;;;;;;;2.07;1.27;;;16.00;99.90;;;;;;4983461;28;20302;-96
2022/07/08 11:26:21;;;;;;;1.37;1.20;;;16.10;99.90;;;;;;4991318;28;20218;-96
2022/07/08 11:28:53;;;;;;;2.03;1.30;;;16.10;99.90;;;;;;4997444;28;20230;-96
2022/07/08 11:31:33;;;;;;;1.47;1.20;;;16.10;99.90;;;;;;4996601;28;20210;-96
2022/07/08 11:34:05;;;;;;;2.60;1.17;;;16.20;99.90;;;;;;4996808;28;20258;-96
2022/07/08 11:36:36;;;;;;;1.20;1.10;;;16.20;99.90;;;;;;4985910;28;20281;-96
2022/07/08 11:39:07;;;;;;;1.63;1.00;;;16.20;99.90;;;;;;4996072;28;20242;-96
2022/07/08 11:41:42;;;;;;;1.30;1.20;;;16.20;99.90;;;;;;4995201;28;20199;-96
2022/07/08 11:44:18;;;;;;;1.10;1.00;;;16.20;99.90;;;;;;4978351;28;20207;-96
2022/07/08 11:46:53;;;;;;;1.57;1.00;;;16.20;99.90;;;;;;4988574;28;20226;-96
2022/07/08 11:49:26;;;;;;;0.90;0.90;;;16.30;99.90;;;;;;4986357;28;20234;-96
2022/07/08 11:51:59;;;;;;;3.67;1.10;;;16.20;99.90;;;;;;4981815;28;20219;-96
2022/07/08 11:54:31;;;;;;;1.83;1.10;;;16.20;99.90;;;;;;4982480;28;20687;-96
2022/07/08 11:57:05;;;;;;;0.90;0.90;;;16.20;99.90;;;;;;4981694;28;20207;-96
2022/07/08 11:59:37;;;;;;;0.90;0.90;;;16.20;99.90;;;;;;4982033;28;20215;-96
2022/07/08 12:02:12;;;;;;;0.90;0.90;;;16.20;99.90;;;;;;4981840;28;20277;-96
2022/07/08 12:04:47;;;;;;;1.70;1.00;;;16.30;99.90;;;;;;4981578;28;20198;-96
2022/07/08 12:07:24;;;;;;;1.90;1.00;;;16.30;99.90;;;;;;4981870;28;20338;-96
2022/07/08 12:10:02;;;;;;;0.83;0.83;;;16.30;99.90;;;;;;4980618;28;20265;-96
2022/07/08 12:12:36;;;;;;;2.80;1.07;;;16.30;99.90;;;;;;4997639;28;20221;-96
2022/07/08 12:15:16;;;;;;;0.90;0.90;;;16.30;99.90;;;;;;5000623;28;20278;-96
2022/07/08 12:18:02;;;;;;;2.00;1.10;;;16.30;99.90;;;;;;5000313;28;20213;-96
2022/07/08 12:20:34;;;;;;;0.70;0.70;;;16.30;99.90;;;;;;4999328;28;20272;-96
2022/07/08 12:23:05;;;;;;;1.20;1.10;;;16.30;99.90;;;;;;5001191;28;20249;-96
2022/07/08 12:25:50;;;;;;;1.17;0.90;;;16.30;99.90;;;;;;5000450;28;20218;-96
2022/07/08 12:28:26;;;;;;;1.30;1.00;;;16.30;99.90;;;;;;5000151;28;20672;-96
2022/07/08 12:30:57;;;;;;;1.80;0.73;;;16.30;99.90;;;;;;4998966;28;20218;-96
2022/07/08 12:36:31;;;;;;;1.13;1.03;;;16.40;99.90;;;;;;5020550;23;20327;-96
2022/07/08 12:39:14;;;;;;;1.20;0.93;;;16.40;99.90;;;;;;4981902;28;20218;-96
2022/07/08 12:41:59;;;;;;;1.77;0.97;;;16.40;99.90;;;;;;4964080;28;20210;-97
2022/07/08 12:44:36;;;;;;;0.83;0.83;;;16.40;99.90;;;;;;4967027;28;20221;-96
2022/07/08 12:47:10;;;;;;;1.80;0.90;;;16.40;99.90;;;;;;4988521;28;20233;-96
2022/07/08 12:49:45;;;;;;;2.07;0.90;;;16.40;99.90;;;;;;4952698;28;20301;-96
2022/07/08 12:52:20;;;;;;;1.33;1.00;;;16.40;99.90;;;;;;4986083;28;20221;-96
2022/07/08 12:54:53;;;;;;;0.70;0.70;;;16.40;99.90;;;;;;4986352;28;20237;-96
2022/07/08 12:57:25;;;;;;;1.23;0.90;;;16.40;99.90;;;;;;4983906;28;20635;-96
2022/07/08 12:59:58;;;;;;;1.37;0.77;;;16.40;99.90;;;;;;4985845;28;20222;-96
2022/07/08 13:02:30;;;;;;;0.80;0.80;;;16.40;99.90;;;;;;4985695;28;20225;-96
2022/07/08 13:05:03;;;;;;;0.73;0.73;;;16.50;99.90;;;;;;4968025;28;20210;-96
2022/07/08 13:07:36;;;;;;;1.73;0.90;;;16.50;99.90;;;;;;4997649;28;20213;-96
2022/07/08 13:10:14;;;;;;;1.00;0.90;;;16.50;99.90;;;;;;4980963;28;20248;-96
2022/07/08 13:12:47;;;;;;;0.70;0.70;;;16.60;99.90;;;;;;4997902;28;20206;-96
2022/07/08 13:15:19;;;;;;;1.33;1.00;;;16.60;99.90;;;;;;4999240;28;20282;-96
2022/07/08 13:17:52;;;;;;;0.80;0.80;;;16.70;99.90;;;;;;4998627;28;20214;-96
2022/07/08 13:20:23;;;;;;;0.73;0.73;;;16.80;99.90;;;;;;4997982;28;20214;-96
2022/07/08 13:22:57;;;;;;;1.00;0.90;;;16.80;99.90;;;;;;5001262;28;20206;-96
2022/07/08 13:25:29;;;;;;;1.10;0.80;;;16.80;99.90;;;;;;5004702;28;20214;-96
2022/07/08 13:28:00;;;;;;;2.10;0.70;;;16.90;99.90;;;;;;5004741;28;20226;-95
2022/07/08 13:30:34;;;;;;;0.80;0.70;;;16.90;99.90;;;;;;5004453;28;20237;-96
2022/07/08 13:33:06;;;;;;;1.47;0.93;;;16.80;99.90;;;;;;5014349;28;20183;-96
2022/07/08 13:35:39;;;;;;;1.20;1.10;;;16.80;99.90;;;;;;5008577;28;20222;-96
2022/07/08 13:38:18;;;;;;;2.70;0.87;;;16.80;99.90;;;;;;5004469;28;20241;-96
2022/07/08 13:40:51;;;;;;;1.10;1.00;;;16.70;99.90;;;;;;5003298;28;20206;-96
2022/07/08 13:43:22;;;;;;;2.07;1.03;;;16.70;99.90;;;;;;5003770;28;20218;-96
2022/07/08 13:45:58;;;;;;;1.17;1.07;;;16.70;99.90;;;;;;5003114;28;20214;-96
2022/07/08 13:48:31;;;;;;;1.90;1.00;;;16.70;99.90;;;;;;5004881;28;20611;-96
2022/07/08 13:51:03;;;;;;;2.30;1.20;;;16.60;99.90;;;;;;5003061;28;20262;-96
2022/07/08 13:53:36;;;;;;;1.73;1.20;;;16.50;99.90;;;;;;5003607;28;20237;-96
2022/07/08 13:58:54;;;;;;;2.57;1.17;;;16.50;99.90;;;;;;5004565;28;20687;-96
2022/07/08 14:01:24;;;;;;;1.33;1.23;;;16.50;99.90;;;;;;5004453;28;20230;-96
2022/07/08 14:03:57;;;;;;;1.40;1.30;;;16.50;99.90;;;;;;5003441;28;20666;-96
2022/07/08 14:06:29;;;;;;;1.20;1.10;;;16.50;99.90;;;;;;5003286;28;20657;-96
2022/07/08 14:09:03;;;;;;;1.60;1.20;;;16.60;99.90;;;;;;5002242;28;20249;-96
2022/07/08 14:11:34;;;;;;;2.20;1.33;;;16.60;99.90;;;;;;5002664;28;20265;-96
2022/07/08 14:14:06;;;;;;;1.23;1.00;;;16.70;99.90;;;;;;5002099;28;20222;-96
2022/07/08 14:16:41;;;;;;;1.57;1.13;;;16.70;99.90;;;;;;5004062;28;20245;-96
2022/07/08 14:19:13;;;;;;;1.07;0.97;;;16.80;99.90;;;;;;5007101;28;20583;-96
2022/07/08 14:21:45;;;;;;;1.10;1.00;;;16.80;99.90;;;;;;5017652;28;20194;-96
2022/07/08 14:24:19;;;;;;;1.13;0.97;;;16.90;99.90;;;;;;5019166;28;20214;-95
2022/07/08 14:26:51;;;;;;;1.83;1.37;;;17.10;99.90;;;;;;5019868;28;20186;-96
2022/07/08 14:29:23;;;;;;;1.10;1.00;;;17.20;99.90;;;;;;5019825;28;20222;-96
2022/07/08 14:31:55;;;;;;;1.70;1.33;;;17.30;99.90;;;;;;5014894;28;20229;-96
2022/07/08 14:34:29;;;;;;;2.67;1.00;;;17.40;99.90;;;;;;5000982;28;20245;-96
2022/07/08 14:37:04;;;;;;;1.77;1.20;;;17.60;99.90;;;;;;5003999;28;20225;-96
2022/07/08 14:39:38;;;;;;;1.63;1.10;;;17.80;99.90;;;;;;5004322;28;20214;-95
2022/07/08 14:42:09;;;;;;;1.20;1.10;;;17.80;99.90;;;;;;5001563;28;20623;-96
2022/07/08 14:44:45;;;;;;;2.10;1.20;;;17.90;99.90;;;;;;5002965;28;20632;-96
2022/07/08 14:47:17;;;;;;;1.30;1.00;;;17.70;99.90;;;;;;5003691;28;20671;-96
2022/07/08 14:55:38;;;;;;;1.63;0.90;;;17.80;99.90;;;;;;5434766;23;20277;-96
2022/07/08 14:58:13;;;;;;;1.83;0.93;;;17.80;99.90;;;;;;4987621;28;20210;-96
2022/07/08 15:00:50;;;;;;;1.47;1.13;;;17.90;99.90;;;;;;4972810;28;20222;-96
2022/07/08 15:03:37;;;;;;;1.83;1.00;;;18.00;99.90;;;;;;4987562;28;20200;-96
2022/07/08 15:06:21;;;;;;;1.30;1.20;;;18.00;99.90;;;;;;4988188;28;20207;-96
2022/07/08 15:08:57;;;;;;;1.70;1.20;;;18.00;99.90;;;;;;4988579;28;20297;-96
2022/07/08 15:11:53;;;;;;;2.87;1.30;;;17.90;99.90;;;;;;4987219;28;20249;-96
2022/07/08 15:17:28;;;;;;;2.07;1.30;;;17.60;99.90;;;;;;4989634;28;20207;-96
2022/07/08 15:20:04;;;;;;;1.90;1.23;;;17.50;99.90;;;;;;4988162;28;20217;-96
2022/07/08 15:22:40;;;;;;;1.40;1.30;;;17.50;99.90;;;;;;4985240;28;20287;-96
2022/07/08 15:25:12;;;;;;;1.37;1.23;;;17.50;99.90;;;;;;4983255;28;20214;-96
2022/07/08 15:27:48;;;;;;;2.93;1.30;;;17.50;99.90;;;;;;4966865;28;20664;-96
2022/07/08 15:30:20;;;;;;;2.17;1.53;;;17.50;99.90;;;;;;4981886;28;20238;-96
2022/07/08 15:32:52;;;;;;;3.33;1.30;;;17.60;99.90;;;;;;4982860;28;20624;-96
2022/07/08 15:35:24;;;;;;;3.87;1.20;;;17.70;99.90;;;;;;4980366;28;20219;-96
2022/07/08 15:37:55;;;;;;;2.03;1.37;;;17.80;99.90;;;;;;4980490;28;20215;-96
2022/07/08 15:40:27;;;;;;;1.40;1.30;;;17.90;99.90;;;;;;4979318;28;20289;-96
2022/07/08 15:43:02;;;;;;;2.10;1.33;;;17.90;99.90;;;;;;4960773;28;20310;-96
2022/07/08 15:45:33;;;;;;;1.30;1.20;;;18.10;99.90;;;;;;4960294;28;20258;-96
2022/07/08 15:48:09;;;;;;;2.43;1.20;;;18.30;99.90;;;;;;4974582;28;20219;-96
2022/07/08 15:54:53;;;;;;;3.50;1.60;;;18.30;99.90;;;;;;4994723;28;20267;-96
2022/07/08 16:06:37;;;;;;;2.03;1.70;;;18.60;99.90;;;;;;4991251;28;20216;-96
2022/07/08 16:09:10;;;;;;;1.83;1.20;;;18.60;99.90;;;;;;4985708;28;20207;-96
2022/07/08 16:14:55;;;;;;;3.10;1.57;;;18.80;99.90;;;;;;4990083;28;20762;-96
2022/07/08 16:25:58;;;;;;;3.13;1.60;;;18.90;99.90;;;;;;5711740;23;20470;-96
2022/07/08 16:31:28;;;;;;;3.90;1.43;;;18.70;99.90;;;;;;4984909;28;20233;-96
2022/07/08 16:34:08;;;;;;;2.10;1.57;;;18.70;99.90;;;;;;4983881;28;20215;-96
2022/07/08 16:36:42;;;;;;;2.63;1.73;;;18.60;99.90;;;;;;4990285;28;20218;-96
2022/07/08 16:39:21;;;;;;;3.40;1.67;;;18.60;99.90;;;;;;4988591;28;20207;-96
2022/07/08 16:41:53;;;;;;;2.23;1.20;;;18.60;99.90;;;;;;4997918;28;20278;-96
2022/07/08 16:44:24;;;;;;;1.90;1.60;;;18.60;99.90;;;;;;5005673;28;20218;-96
2022/07/08 16:50:39;;;;;;;1.23;0.80;;;18.50;99.90;;;;;;5007881;28;20217;-96
2022/07/08 16:53:52;;;;;;;1.37;1.10;;;18.30;99.90;;;;;;5015481;28;20182;-96
2022/07/08 16:56:27;;;;;;;2.37;1.00;;;18.20;99.90;;;;;;5016548;28;20187;-94
2022/07/08 16:59:02;;;;;;;2.53;1.00;;;18.30;99.90;;;;;;5007862;28;20213;-96
2022/07/08 17:13:21;;;;;;;2.13;0.90;;;18.60;99.90;;;;;;4971025;28;20206;-96
2022/07/08 17:15:53;;;;;;;1.67;0.93;;;18.90;99.90;;;;;;4973388;28;20274;-96
2022/07/08 17:38:32;;;;;;;2.23;0.80;;;19.90;99.90;;;;;;4972504;29;20703;-95
2022/07/08 17:41:37;;;;;;;1.13;1.00;;;19.80;99.90;;;;;;4956242;28;20291;-98
2022/07/08 17:44:16;;;;;;;1.97;1.00;;;19.90;99.90;;;;;;4973070;28;20207;-96
2022/07/08 17:46:48;;;;;;;1.30;0.90;;;20.00;99.90;;;;;;4972606;28;20708;-96
2022/07/08 18:09:18;;;;;;;2.93;0.60;;;20.00;99.90;;;;;;4970983;28;20215;-96
2022/07/08 18:11:54;;;;;;;0.87;0.57;;;20.00;99.90;;;;;;4968448;28;20363;-96
2022/07/08 18:14:26;;;;;;;3.60;0.80;;;20.00;99.90;;;;;;4968276;28;20223;-96
2022/07/08 18:17:07;;;;;;;1.97;0.80;;;20.30;99.90;;;;;;4965859;28;20293;-96
2022/07/08 18:19:38;;;;;;;2.40;0.70;;;20.40;99.90;;;;;;4965197;28;20211;-96
2022/07/08 18:22:10;;;;;;;3.27;0.93;;;20.60;99.90;;;;;;4962716;28;20724;-96
2022/07/08 18:24:50;;;;;;;1.03;0.80;;;20.90;99.90;;;;;;4964381;28;20212;-96
2022/07/08 18:27:22;;;;;;;1.87;1.10;;;21.10;99.90;;;;;;4963962;28;20271;-96
2022/07/08 18:29:58;;;;;;;3.40;0.90;;;21.50;99.90;;;;;;4965673;28;20226;-96
2022/07/08 18:32:43;;;;;;;1.00;0.70;;;21.50;99.90;;;;;;4970840;28;20231;-96
2022/07/08 18:35:19;;;;;;;0.93;0.70;;;21.30;99.90;;;;;;4966754;28;20208;-96
2022/07/08 18:38:00;;;;;;;1.83;0.83;;;21.30;99.90;;;;;;4965902;28;20255;-96
2022/07/08 18:40:38;;;;;;;1.00;0.90;;;21.30;99.90;;;;;;4965618;28;20215;-96
2022/07/08 18:43:17;;;;;;;7.30;1.20;;;21.20;99.90;;;;;;4964168;28;20211;-96
2022/07/08 18:45:49;;;;;;;1.27;0.90;;;21.50;99.90;;;;;;4963257;28;20215;-96
2022/07/08 18:48:22;;;;;;;3.50;0.90;;;21.40;99.90;;;;;;4964807;28;20234;-96
2022/07/08 18:50:53;;;;;;;1.53;0.80;;;21.50;99.90;;;;;;4963831;28;20242;-96
2022/07/08 19:00:22;;;;;;;1.40;1.10;;;21.00;99.90;;;;;;4973566;28;20203;-96
2022/07/08 19:02:58;;;;;;;1.67;1.00;;;21.00;99.90;;;;;;4973624;28;20211;-95
2022/07/08 19:22:24;;;;;;;2.93;0.90;;;21.50;99.90;;;;;;5479376;23;20270;-96
2022/07/08 19:28:10;;;;;;;3.07;0.80;;;21.90;99.90;;;;;;5243890;23;20650;-96
2022/07/08 19:30:56;;;;;;;1.33;0.80;;;21.70;99.90;;;;;;5070059;23;20247;-96
2022/07/08 19:36:16;;;;;;;0.80;0.80;;;21.30;99.90;;;;;;4972788;28;20212;-96